sensor_id;sensor_type;location;lat;lon;timestamp;pressure;altitude;pressure_sealevel;temperature;humidity
55070;BME280;40967;52.070;8.596;2023-04-01T00:02:00;98373.38;;;9.31;100.00
55070;BME280;40967;52.070;8.596;2023-04-01T00:04:26;98372.25;;;9.32;100.00
55070;BME280;40967;52.070;8.596;2023-04-01T00:06:51;98378.47;;;9.32;100.00
55070;BME280;40967;52.070;8.596;2023-04-01T00:09:17;98370.84;;;9.34;100.00
55070;BME280;40967;52.070;8.596;2023-04-01T00:11:43;98372.25;;;9.32;100.00
55070;BME280;40967;52.070;8.596;2023-04-01T00:14:10;98368.47;;;9.33;100.00
55070;BME280;40967;52.070;8.596;2023-04-01T00:16:36;98367.34;;;9.34;100.00
55070;BME280;40967;52.070;8.596;2023-04-01T00:19:01;98367.66;;;9.32;100.00
55070;BME280;40967;52.070;8.596;2023-04-01T00:21:27;98377.38;;;9.33;100.00
55070;BME280;40967;52.070;8.596;2023-04-01T00:23:52;98379.28;;;9.33;100.00
55070;BME280;40967;52.070;8.596;2023-04-01T00:26:18;98370.19;;;9.29;100.00
55070;BME280;40967;52.070;8.596;2023-04-01T00:28:46;98376.41;;;9.29;100.00
55070;BME280;40967;52.070;8.596;2023-04-01T00:31:12;98374.47;;;9.30;100.00
55070;BME280;40967;52.070;8.596;2023-04-01T00:33:39;98367.81;;;9.27;100.00
55070;BME280;40967;52.070;8.596;2023-04-01T00:36:13;98367.50;;;9.29;100.00
55070;BME280;40967;52.070;8.596;2023-04-01T00:38:40;98365.91;;;9.28;100.00
55070;BME280;40967;52.070;8.596;2023-04-01T00:41:08;98364.59;;;9.25;100.00
55070;BME280;40967;52.070;8.596;2023-04-01T00:43:34;98361.91;;;9.25;100.00
55070;BME280;40967;52.070;8.596;2023-04-01T00:46:00;98360.31;;;9.24;100.00
55070;BME280;40967;52.070;8.596;2023-04-01T00:48:30;98359.19;;;9.25;100.00
55070;BME280;40967;52.070;8.596;2023-04-01T00:53:28;98366.00;;;9.23;100.00
55070;BME280;40967;52.070;8.596;2023-04-01T00:56:02;98351.72;;;9.22;100.00
55070;BME280;40967;52.070;8.596;2023-04-01T00:58:31;98362.53;;;9.22;100.00
55070;BME280;40967;52.070;8.596;2023-04-01T01:00:59;98365.56;;;9.21;100.00
55070;BME280;40967;52.070;8.596;2023-04-01T01:03:26;98363.47;;;9.17;100.00
55070;BME280;40967;52.070;8.596;2023-04-01T01:06:12;98353.59;;;9.13;100.00
55070;BME280;40967;52.070;8.596;2023-04-01T01:17:24;98355.31;;;9.09;100.00
55070;BME280;40967;52.070;8.596;2023-04-01T01:27:38;98354.22;;;9.10;100.00
55070;BME280;40967;52.070;8.596;2023-04-01T01:36:18;98356.28;;;9.13;100.00
55070;BME280;40967;52.070;8.596;2023-04-01T01:38:44;98357.41;;;9.12;100.00
55070;BME280;40967;52.070;8.596;2023-04-01T01:41:12;98348.97;;;9.13;100.00
55070;BME280;40967;52.070;8.596;2023-04-01T01:43:42;98344.34;;;9.14;100.00
55070;BME280;40967;52.070;8.596;2023-04-01T01:46:12;98341.28;;;9.07;100.00
55070;BME280;40967;52.070;8.596;2023-04-01T01:48:41;98346.59;;;9.12;100.00
55070;BME280;40967;52.070;8.596;2023-04-01T01:51:08;98349.56;;;9.10;100.00
55070;BME280;40967;52.070;8.596;2023-04-01T01:53:34;98333.97;;;9.07;100.00
55070;BME280;40967;52.070;8.596;2023-04-01T01:56:00;98340.38;;;9.11;100.00
55070;BME280;40967;52.070;8.596;2023-04-01T01:58:34;98338.75;;;9.10;100.00
55070;BME280;40967;52.070;8.596;2023-04-01T02:01:08;98332.88;;;9.08;100.00
55070;BME280;40967;52.070;8.596;2023-04-01T02:03:37;98348.97;;;9.13;100.00
55070;BME280;40967;52.070;8.596;2023-04-01T02:06:07;98343.56;;;9.13;100.00
55070;BME280;40967;52.070;8.596;2023-04-01T02:08:47;98349.75;;;9.14;100.00
55070;BME280;40967;52.070;8.596;2023-04-01T02:11:19;98352.28;;;9.10;100.00
55070;BME280;40967;52.070;8.596;2023-04-01T02:16:49;98337.81;;;9.06;100.00
55070;BME280;40967;52.070;8.596;2023-04-01T02:19:15;98342.41;;;9.06;100.00
55070;BME280;40967;52.070;8.596;2023-04-01T02:21:53;98344.63;;;9.04;100.00
55070;BME280;40967;52.070;8.596;2023-04-01T02:24:21;98343.34;;;9.01;100.00
55070;BME280;40967;52.070;8.596;2023-04-01T02:26:52;98344.44;;;9.00;100.00
55070;BME280;40967;52.070;8.596;2023-04-01T02:29:21;98339.69;;;8.97;100.00
55070;BME280;40967;52.070;8.596;2023-04-01T02:31:49;98336.34;;;9.00;100.00
55070;BME280;40967;52.070;8.596;2023-04-01T02:34:15;98333.94;;;8.99;100.00
55070;BME280;40967;52.070;8.596;2023-04-01T02:36:41;98337.47;;;8.99;100.00
55070;BME280;40967;52.070;8.596;2023-04-01T02:39:07;98350.97;;;8.99;100.00
55070;BME280;40967;52.070;8.596;2023-04-01T02:41:42;98338.88;;;8.97;100.00
55070;BME280;40967;52.070;8.596;2023-04-01T02:44:08;98343.97;;;8.98;100.00
55070;BME280;40967;52.070;8.596;2023-04-01T02:46:34;98342.88;;;8.99;100.00
55070;BME280;40967;52.070;8.596;2023-04-01T02:48:59;98346.66;;;8.98;100.00
55070;BME280;40967;52.070;8.596;2023-04-01T02:51:26;98335.38;;;8.96;100.00
55070;BME280;40967;52.070;8.596;2023-04-01T02:53:51;98343.97;;;8.98;100.00
55070;BME280;40967;52.070;8.596;2023-04-01T02:56:16;98340.78;;;8.96;100.00
55070;BME280;40967;52.070;8.596;2023-04-01T02:58:42;98340.47;;;8.98;100.00
55070;BME280;40967;52.070;8.596;2023-04-01T03:01:07;98342.38;;;8.97;100.00
55070;BME280;40967;52.070;8.596;2023-04-01T03:03:33;98345.72;;;8.94;100.00
55070;BME280;40967;52.070;8.596;2023-04-01T03:06:10;98342.69;;;8.96;100.00
55070;BME280;40967;52.070;8.596;2023-04-01T03:08:37;98342.19;;;8.94;100.00
55070;BME280;40967;52.070;8.596;2023-04-01T03:11:02;98338.19;;;8.91;100.00
55070;BME280;40967;52.070;8.596;2023-04-01T03:13:28;98351.13;;;8.94;100.00
55070;BME280;40967;52.070;8.596;2023-04-01T03:15:53;98351.91;;;8.95;100.00
55070;BME280;40967;52.070;8.596;2023-04-01T03:18:19;98337.59;;;8.94;100.00
55070;BME280;40967;52.070;8.596;2023-04-01T03:20:45;98348.91;;;8.96;100.00
55070;BME280;40967;52.070;8.596;2023-04-01T03:23:10;98347.28;;;8.95;100.00
55070;BME280;40967;52.070;8.596;2023-04-01T03:25:36;98357.13;;;8.91;100.00
55070;BME280;40967;52.070;8.596;2023-04-01T03:28:02;98358.44;;;8.94;100.00
55070;BME280;40967;52.070;8.596;2023-04-01T03:30:27;98353.03;;;8.94;100.00
55070;BME280;40967;52.070;8.596;2023-04-01T03:32:55;98351.72;;;8.91;100.00
55070;BME280;40967;52.070;8.596;2023-04-01T03:35:20;98352.53;;;8.92;100.00
55070;BME280;40967;52.070;8.596;2023-04-01T03:37:46;98349.81;;;8.92;100.00
55070;BME280;40967;52.070;8.596;2023-04-01T03:40:11;98358.13;;;8.95;100.00
55070;BME280;40967;52.070;8.596;2023-04-01T03:42:37;98349.03;;;8.91;100.00
55070;BME280;40967;52.070;8.596;2023-04-01T03:45:03;98358.75;;;8.92;100.00
55070;BME280;40967;52.070;8.596;2023-04-01T03:47:29;98364.34;;;8.96;100.00
55070;BME280;40967;52.070;8.596;2023-04-01T03:49:54;98362.44;;;8.96;100.00
55070;BME280;40967;52.070;8.596;2023-04-01T03:52:20;98368.63;;;8.97;100.00
55070;BME280;40967;52.070;8.596;2023-04-01T03:54:46;98364.66;;;8.94;100.00
55070;BME280;40967;52.070;8.596;2023-04-01T03:57:11;98370.53;;;8.96;100.00
55070;BME280;40967;52.070;8.596;2023-04-01T03:59:36;98368.63;;;8.97;100.00
55070;BME280;40967;52.070;8.596;2023-04-01T04:02:02;98360.19;;;8.98;100.00
55070;BME280;40967;52.070;8.596;2023-04-01T04:04:27;98366.72;;;8.97;100.00
55070;BME280;40967;52.070;8.596;2023-04-01T04:06:54;98364.00;;;8.97;100.00
55070;BME280;40967;52.070;8.596;2023-04-01T04:09:20;98361.13;;;8.94;100.00
55070;BME280;40967;52.070;8.596;2023-04-01T04:11:45;98365.13;;;8.96;100.00
55070;BME280;40967;52.070;8.596;2023-04-01T04:14:11;98372.13;;;8.97;100.00
55070;BME280;40967;52.070;8.596;2023-04-01T04:16:36;98368.94;;;8.95;100.00
55070;BME280;40967;52.070;8.596;2023-04-01T04:19:03;98365.72;;;8.93;100.00
55070;BME280;40967;52.070;8.596;2023-04-01T04:21:29;98363.97;;;8.89;100.00
55070;BME280;40967;52.070;8.596;2023-04-01T04:23:54;98364.66;;;8.94;100.00
55070;BME280;40967;52.070;8.596;2023-04-01T04:26:20;98369.75;;;8.96;100.00
55070;BME280;40967;52.070;8.596;2023-04-01T04:28:45;98366.72;;;8.97;100.00
55070;BME280;40967;52.070;8.596;2023-04-01T04:31:11;98365.72;;;8.93;100.00
55070;BME280;40967;52.070;8.596;2023-04-01T04:33:37;98371.63;;;8.95;100.00
55070;BME280;40967;52.070;8.596;2023-04-01T04:36:03;98378.66;;;8.96;100.00
55070;BME280;40967;52.070;8.596;2023-04-01T04:38:29;98370.53;;;8.96;100.00
55070;BME280;40967;52.070;8.596;2023-04-01T04:40:56;98379.44;;;8.97;100.00
55070;BME280;40967;52.070;8.596;2023-04-01T04:43:21;98371.31;;;8.97;100.00
55070;BME280;40967;52.070;8.596;2023-04-01T04:45:47;98378.84;;;9.00;100.00
55070;BME280;40967;52.070;8.596;2023-04-01T04:48:14;98378.84;;;9.00;100.00
55070;BME280;40967;52.070;8.596;2023-04-01T04:50:48;98378.53;;;9.01;100.00
55070;BME280;40967;52.070;8.596;2023-04-01T04:53:14;98377.41;;;9.02;100.00
55070;BME280;40967;52.070;8.596;2023-04-01T04:55:48;98378.53;;;9.01;100.00
55070;BME280;40967;52.070;8.596;2023-04-01T04:58:14;98387.72;;;9.00;100.00
55070;BME280;40967;52.070;8.596;2023-04-01T05:00:40;98388.84;;;8.99;100.00
55070;BME280;40967;52.070;8.596;2023-04-01T05:03:05;98385.47;;;8.94;100.00
55070;BME280;40967;52.070;8.596;2023-04-01T05:05:31;98388.97;;;8.94;100.00
55070;BME280;40967;52.070;8.596;2023-04-01T05:07:56;98389.59;;;8.91;100.00
55070;BME280;40967;52.070;8.596;2023-04-01T05:10:22;98387.00;;;8.86;100.00
55070;BME280;40967;52.070;8.596;2023-04-01T05:12:48;98392.41;;;8.86;100.00
55070;BME280;40967;52.070;8.596;2023-04-01T05:15:13;98393.84;;;8.84;100.00
55070;BME280;40967;52.070;8.596;2023-04-01T05:17:40;98397.34;;;8.84;100.00
55070;BME280;40967;52.070;8.596;2023-04-01T05:20:06;98395.75;;;8.83;100.00
55070;BME280;40967;52.070;8.596;2023-04-01T05:22:32;98397.97;;;8.81;100.00
55070;BME280;40967;52.070;8.596;2023-04-01T05:24:57;98395.25;;;8.81;100.00
55070;BME280;40967;52.070;8.596;2023-04-01T05:27:23;98393.66;;;8.80;100.00
55070;BME280;40967;52.070;8.596;2023-04-01T05:29:48;98404.19;;;8.82;100.00
55070;BME280;40967;52.070;8.596;2023-04-01T05:32:14;98397.97;;;8.81;100.00
55070;BME280;40967;52.070;8.596;2023-04-01T05:34:40;98406.06;;;8.81;100.00
55070;BME280;40967;52.070;8.596;2023-04-01T05:37:05;98407.69;;;8.82;100.00
55070;BME280;40967;52.070;8.596;2023-04-01T05:39:36;98403.38;;;8.81;100.00
55070;BME280;40967;52.070;8.596;2023-04-01T05:42:01;98401.78;;;8.80;100.00
55070;BME280;40967;52.070;8.596;2023-04-01T05:44:27;98402.88;;;8.79;100.00
55070;BME280;40967;52.070;8.596;2023-04-01T05:46:52;98402.28;;;8.82;100.00
55070;BME280;40967;52.070;8.596;2023-04-01T05:49:17;98406.56;;;8.83;100.00
55070;BME280;40967;52.070;8.596;2023-04-01T05:51:43;98401.97;;;8.84;100.00
55070;BME280;40967;52.070;8.596;2023-04-01T05:54:08;98403.69;;;8.80;100.00
55070;BME280;40967;52.070;8.596;2023-04-01T05:56:34;98413.09;;;8.82;100.00
55070;BME280;40967;52.070;8.596;2023-04-01T05:58:59;98408.16;;;8.84;100.00
55070;BME280;40967;52.070;8.596;2023-04-01T06:01:24;98409.28;;;8.83;100.00
55070;BME280;40967;52.070;8.596;2023-04-01T06:03:52;98407.69;;;8.82;100.00
55070;BME280;40967;52.070;8.596;2023-04-01T06:06:28;98420.09;;;8.83;100.00
55070;BME280;40967;52.070;8.596;2023-04-01T06:08:56;98415.50;;;8.84;100.00
55070;BME280;40967;52.070;8.596;2023-04-01T06:11:42;98420.59;;;8.85;100.00
55070;BME280;40967;52.070;8.596;2023-04-01T06:19:53;98424.28;;;8.89;100.00
55070;BME280;40967;52.070;8.596;2023-04-01T06:25:24;98434.47;;;8.92;100.00
55070;BME280;40967;52.070;8.596;2023-04-01T06:28:12;98431.44;;;8.94;100.00
55070;BME280;40967;52.070;8.596;2023-04-01T06:30:42;98432.25;;;8.94;100.00
55070;BME280;40967;52.070;8.596;2023-04-01T06:44:53;98449.81;;;9.05;100.00
55070;BME280;40967;52.070;8.596;2023-04-01T06:57:51;98459.66;;;9.32;100.00
55070;BME280;40967;52.070;8.596;2023-04-01T07:00:27;98456.03;;;9.37;100.00
55070;BME280;40967;52.070;8.596;2023-04-01T07:05:24;98469.09;;;9.35;100.00
55070;BME280;40967;52.070;8.596;2023-04-01T07:07:54;98453.75;;;9.30;100.00
55070;BME280;40967;52.070;8.596;2023-04-01T07:10:32;98462.88;;;9.34;100.00
55070;BME280;40967;52.070;8.596;2023-04-01T07:13:02;98466.84;;;9.37;100.00
55070;BME280;40967;52.070;8.596;2023-04-01T07:15:36;98472.16;;;9.42;100.00
55070;BME280;40967;52.070;8.596;2023-04-01T07:18:16;98465.25;;;9.36;100.00
55070;BME280;40967;52.070;8.596;2023-04-01T07:20:44;98469.53;;;9.37;100.00
55070;BME280;40967;52.070;8.596;2023-04-01T07:23:16;98484.88;;;9.41;100.00
55070;BME280;40967;52.070;8.596;2023-04-01T07:25:47;98483.75;;;9.42;100.00
55070;BME280;40967;52.070;8.596;2023-04-01T07:28:16;98490.47;;;9.45;100.00
55070;BME280;40967;52.070;8.596;2023-04-01T07:33:44;98487.63;;;9.50;100.00
55070;BME280;40967;52.070;8.596;2023-04-01T07:36:42;98490.81;;;9.52;100.00
55070;BME280;40967;52.070;8.596;2023-04-01T07:44:54;98494.63;;;9.51;100.00
55070;BME280;40967;52.070;8.596;2023-04-01T07:47:54;98499.53;;;9.49;100.00
55070;BME280;40967;52.070;8.596;2023-04-01T07:50:31;98497.94;;;9.48;100.00
55070;BME280;40967;52.070;8.596;2023-04-01T08:15:21;98526.69;;;9.57;100.00
55070;BME280;40967;52.070;8.596;2023-04-01T08:25:39;98537.72;;;9.69;100.00
55070;BME280;40967;52.070;8.596;2023-04-01T08:28:16;98535.19;;;9.73;100.00
55070;BME280;40967;52.070;8.596;2023-04-01T08:30:56;98536.28;;;9.72;100.00
55070;BME280;40967;52.070;8.596;2023-04-01T08:33:30;98543.19;;;9.78;100.00
55070;BME280;40967;52.070;8.596;2023-04-01T08:38:40;98541.44;;;9.82;100.00
55070;BME280;40967;52.070;8.596;2023-04-01T08:47:13;98542.13;;;9.96;100.00
55070;BME280;40967;52.070;8.596;2023-04-01T08:52:40;98557.00;;;10.07;100.00
55070;BME280;40967;52.070;8.596;2023-04-01T08:58:07;98558.97;;;10.15;100.00
55070;BME280;40967;52.070;8.596;2023-04-01T09:14:51;98568.50;;;10.69;100.00
55070;BME280;40967;52.070;8.596;2023-04-01T09:26:03;98580.66;;;11.05;100.00
55070;BME280;40967;52.070;8.596;2023-04-01T09:44:58;98594.34;;;11.77;100.00
55070;BME280;40967;52.070;8.596;2023-04-01T09:56:48;98605.75;;;12.08;100.00
55070;BME280;40967;52.070;8.596;2023-04-01T10:07:54;98617.66;;;12.33;100.00
55070;BME280;40967;52.070;8.596;2023-04-01T10:36:49;98623.97;;;12.54;100.00
55070;BME280;40967;52.070;8.596;2023-04-01T11:10:17;98637.22;;;12.85;100.00
55070;BME280;40967;52.070;8.596;2023-04-01T11:24:32;98651.53;;;12.73;100.00
55070;BME280;40967;52.070;8.596;2023-04-01T11:42:55;98664.28;;;12.81;100.00
55070;BME280;40967;52.070;8.596;2023-04-01T11:56:17;98678.59;;;12.99;100.00
55070;BME280;40967;52.070;8.596;2023-04-01T12:12:17;98692.28;;;13.19;100.00
55070;BME280;40967;52.070;8.596;2023-04-01T12:15:02;98698.13;;;13.30;100.00
55070;BME280;40967;52.070;8.596;2023-04-01T12:17:46;98698.41;;;13.37;100.00
55070;BME280;40967;52.070;8.596;2023-04-01T12:31:42;98713.16;;;13.56;100.00
55070;BME280;40967;52.070;8.596;2023-04-01T12:57:28;98738.88;;;13.88;96.58
55070;BME280;40967;52.070;8.596;2023-04-01T13:00:23;98742.88;;;13.91;96.42
55070;BME280;40967;52.070;8.596;2023-04-01T13:16:38;98754.69;;;13.95;94.99
55070;BME280;40967;52.070;8.596;2023-04-01T13:19:22;98755.16;;;13.97;94.83
55070;BME280;40967;52.070;8.596;2023-04-01T13:24:59;98768.41;;;13.86;93.42
55070;BME280;40967;52.070;8.596;2023-04-01T13:27:43;98772.44;;;13.80;93.40
55070;BME280;40967;52.070;8.596;2023-04-01T13:30:34;98774.22;;;13.76;93.22
55070;BME280;40967;52.070;8.596;2023-04-01T13:33:17;98777.84;;;13.68;94.04
55070;BME280;40967;52.070;8.596;2023-04-01T13:36:03;98772.25;;;13.64;94.72
55070;BME280;40967;52.070;8.596;2023-04-01T13:43:59;98784.09;;;13.89;93.78
55070;BME280;40967;52.070;8.596;2023-04-01T13:46:43;98779.09;;;13.91;93.18
55070;BME280;40967;52.070;8.596;2023-04-01T13:52:01;98791.72;;;13.75;91.75
55070;BME280;40967;52.070;8.596;2023-04-01T14:08:47;98802.84;;;13.91;92.59
55070;BME280;40967;52.070;8.596;2023-04-01T14:14:12;98813.88;;;13.94;93.80
55070;BME280;40967;52.070;8.596;2023-04-01T14:25:16;98829.94;;;13.66;94.04
55070;BME280;40967;52.070;8.596;2023-04-01T14:33:26;98840.09;;;13.57;94.56
55070;BME280;40967;52.070;8.596;2023-04-01T14:49:43;98849.22;;;13.32;96.41
55070;BME280;40967;52.070;8.596;2023-04-01T14:52:16;98854.66;;;13.32;97.01
55070;BME280;40967;52.070;8.596;2023-04-01T14:54:46;98856.44;;;13.28;97.31
55070;BME280;40967;52.070;8.596;2023-04-01T14:57:23;98863.47;;;13.29;97.35
55070;BME280;40967;52.070;8.596;2023-04-01T15:00:13;98871.97;;;13.28;97.36
55070;BME280;40967;52.070;8.596;2023-04-01T15:08:07;98869.44;;;13.23;97.02
55070;BME280;40967;52.070;8.596;2023-04-01T15:16:27;98882.56;;;13.21;97.40
55070;BME280;40967;52.070;8.596;2023-04-01T15:19:10;98889.31;;;13.23;97.83
55070;BME280;40967;52.070;8.596;2023-04-01T15:30:20;98914.97;;;13.14;98.49
55070;BME280;40967;52.070;8.596;2023-04-01T15:38:09;98926.66;;;12.97;98.54
55070;BME280;40967;52.070;8.596;2023-04-01T15:43:42;98940.16;;;12.85;99.57
55070;BME280;40967;52.070;8.596;2023-04-01T15:46:44;98937.44;;;12.77;99.18
55070;BME280;40967;52.070;8.596;2023-04-01T15:52:07;98942.09;;;12.59;98.25
55070;BME280;40967;52.070;8.596;2023-04-01T15:55:17;98951.50;;;12.53;98.12
55070;BME280;40967;52.070;8.596;2023-04-01T16:00:51;98965.91;;;12.45;99.80
55070;BME280;40967;52.070;8.596;2023-04-01T16:03:39;98968.47;;;12.41;100.00
55070;BME280;40967;52.070;8.596;2023-04-01T16:06:22;98965.59;;;12.38;99.97
55070;BME280;40967;52.070;8.596;2023-04-01T16:11:48;98971.34;;;12.28;100.00
55070;BME280;40967;52.070;8.596;2023-04-01T16:14:28;98983.97;;;12.24;100.00
55070;BME280;40967;52.070;8.596;2023-04-01T16:19:37;98994.50;;;12.17;100.00
55070;BME280;40967;52.070;8.596;2023-04-01T16:27:43;99005.53;;;12.12;100.00
55070;BME280;40967;52.070;8.596;2023-04-01T16:30:34;99004.22;;;12.09;100.00
55070;BME280;40967;52.070;8.596;2023-04-01T16:41:42;99025.81;;;12.06;100.00
55070;BME280;40967;52.070;8.596;2023-04-01T16:44:27;99028.06;;;12.04;100.00
55070;BME280;40967;52.070;8.596;2023-04-01T16:47:06;99040.03;;;12.03;100.00
55070;BME280;40967;52.070;8.596;2023-04-01T16:49:42;99044.53;;;11.99;100.00
55070;BME280;40967;52.070;8.596;2023-04-01T16:55:02;99064.78;;;11.93;100.00
55070;BME280;40967;52.070;8.596;2023-04-01T16:57:45;99071.47;;;11.87;100.00
55070;BME280;40967;52.070;8.596;2023-04-01T17:00:22;99073.38;;;11.78;100.00
55070;BME280;40967;52.070;8.596;2023-04-01T17:05:17;99083.69;;;11.67;100.00
55070;BME280;40967;52.070;8.596;2023-04-01T17:21:20;99122.28;;;10.98;100.00
55070;BME280;40967;52.070;8.596;2023-04-01T17:23:52;99124.31;;;10.92;100.00
55070;BME280;40967;52.070;8.596;2023-04-01T17:29:28;99134.19;;;10.75;100.00
55070;BME280;40967;52.070;8.596;2023-04-01T17:32:25;99155.50;;;10.68;100.00
55070;BME280;40967;52.070;8.596;2023-04-01T17:40:53;99178.19;;;10.45;100.00
55070;BME280;40967;52.070;8.596;2023-04-01T17:49:33;99185.81;;;10.29;100.00
55070;BME280;40967;52.070;8.596;2023-04-01T18:03:17;99230.19;;;10.01;100.00
55070;BME280;40967;52.070;8.596;2023-04-01T18:08:57;99239.09;;;9.88;100.00
55070;BME280;40967;52.070;8.596;2023-04-01T18:19:02;99267.22;;;9.73;100.00
55070;BME280;40967;52.070;8.596;2023-04-01T18:21:50;99279.44;;;9.71;100.00
55070;BME280;40967;52.070;8.596;2023-04-01T18:27:20;99293.19;;;9.56;100.00
55070;BME280;40967;52.070;8.596;2023-04-01T18:29:52;99301.31;;;9.56;100.00
55070;BME280;40967;52.070;8.596;2023-04-01T18:32:48;99316.34;;;9.48;100.00
55070;BME280;40967;52.070;8.596;2023-04-01T18:50:28;99347.88;;;9.15;100.00
55070;BME280;40967;52.070;8.596;2023-04-01T18:53:27;99373.31;;;9.14;100.00
55070;BME280;40967;52.070;8.596;2023-04-01T18:55:57;99376.34;;;9.08;100.00
55070;BME280;40967;52.070;8.596;2023-04-01T19:01:17;99388.31;;;9.02;100.00
55070;BME280;40967;52.070;8.596;2023-04-01T19:03:53;99392.41;;;8.99;100.00
55070;BME280;40967;52.070;8.596;2023-04-01T19:09:09;99407.59;;;8.95;100.00
55070;BME280;40967;52.070;8.596;2023-04-01T19:11:49;99413.81;;;8.96;100.00
55070;BME280;40967;52.070;8.596;2023-04-01T19:20:06;99430.16;;;8.86;100.00
55070;BME280;40967;52.070;8.596;2023-04-01T19:22:52;99439.91;;;8.82;100.00
55070;BME280;40967;52.070;8.596;2023-04-01T19:27:52;99454.59;;;8.71;100.00
55070;BME280;40967;52.070;8.596;2023-04-01T19:36:24;99469.31;;;8.60;100.00
55070;BME280;40967;52.070;8.596;2023-04-01T19:41:55;99466.91;;;8.53;100.00
55070;BME280;40967;52.070;8.596;2023-04-01T19:47:50;99483.75;;;8.45;100.00
55070;BME280;40967;52.070;8.596;2023-04-01T19:53:13;99494.31;;;8.42;100.00
55070;BME280;40967;52.070;8.596;2023-04-01T19:55:48;99508.13;;;8.35;100.00
55070;BME280;40967;52.070;8.596;2023-04-01T19:58:41;99515.13;;;8.36;100.00
55070;BME280;40967;52.070;8.596;2023-04-01T20:01:17;99527.06;;;8.35;100.00
55070;BME280;40967;52.070;8.596;2023-04-01T20:03:51;99527.09;;;8.30;100.00
55070;BME280;40967;52.070;8.596;2023-04-01T20:11:41;99542.22;;;8.21;100.00
55070;BME280;40967;52.070;8.596;2023-04-01T20:19:43;99564.44;;;8.13;100.00
55070;BME280;40967;52.070;8.596;2023-04-01T20:24:51;99574.72;;;8.06;100.00
55070;BME280;40967;52.070;8.596;2023-04-01T20:27:26;99588.47;;;8.04;100.00
55070;BME280;40967;52.070;8.596;2023-04-01T20:36:12;99606.88;;;7.97;100.00
55070;BME280;40967;52.070;8.596;2023-04-01T20:44:07;99622.31;;;7.87;100.00
55070;BME280;40967;52.070;8.596;2023-04-01T20:51:45;99645.00;;;7.71;100.00
55070;BME280;40967;52.070;8.596;2023-04-01T21:05:58;99676.59;;;7.55;100.00
55070;BME280;40967;52.070;8.596;2023-04-01T21:11:18;99679.59;;;7.49;100.00
55070;BME280;40967;52.070;8.596;2023-04-01T21:14:06;99694.97;;;7.48;100.00
55070;BME280;40967;52.070;8.596;2023-04-01T21:19:21;99696.56;;;7.44;100.00
55070;BME280;40967;52.070;8.596;2023-04-01T21:29:56;99734.88;;;7.26;100.00
55070;BME280;40967;52.070;8.596;2023-04-01T21:43:42;99759.88;;;7.02;100.00
55070;BME280;40967;52.070;8.596;2023-04-01T21:51:56;99780.06;;;6.94;100.00
55070;BME280;40967;52.070;8.596;2023-04-01T22:00:18;99788.97;;;6.89;100.00
55070;BME280;40967;52.070;8.596;2023-04-01T22:05:39;99795.94;;;6.85;100.00
55070;BME280;40967;52.070;8.596;2023-04-01T22:14:13;99806.38;;;6.67;100.00
55070;BME280;40967;52.070;8.596;2023-04-01T22:16:56;99823.03;;;6.64;100.00
55070;BME280;40967;52.070;8.596;2023-04-01T22:22:14;99836.19;;;6.55;100.00
55070;BME280;40967;52.070;8.596;2023-04-01T22:32:13;99854.97;;;6.40;100.00
55070;BME280;40967;52.070;8.596;2023-04-01T22:35:10;99851.97;;;6.37;100.00
55070;BME280;40967;52.070;8.596;2023-04-01T22:43:04;99865.94;;;6.29;100.00
55070;BME280;40967;52.070;8.596;2023-04-01T22:45:56;99875.63;;;6.30;100.00
55070;BME280;40967;52.070;8.596;2023-04-01T22:51:01;99883.19;;;6.33;100.00
55070;BME280;40967;52.070;8.596;2023-04-01T22:56:34;99895.00;;;6.27;100.00
55070;BME280;40967;52.070;8.596;2023-04-01T22:59:26;99907.91;;;6.25;100.00
55070;BME280;40967;52.070;8.596;2023-04-01T23:02:06;99897.66;;;6.22;100.00
55070;BME280;40967;52.070;8.596;2023-04-01T23:04:37;99909.75;;;6.19;100.00
55070;BME280;40967;52.070;8.596;2023-04-01T23:07:24;99915.97;;;6.20;100.00
55070;BME280;40967;52.070;8.596;2023-04-01T23:09:56;99926.16;;;6.18;100.00
55070;BME280;40967;52.070;8.596;2023-04-01T23:12:24;99920.72;;;6.13;100.00
55070;BME280;40967;52.070;8.596;2023-04-01T23:14:57;99932.56;;;6.12;100.00
55070;BME280;40967;52.070;8.596;2023-04-01T23:20:47;99947.25;;;5.99;100.00
55070;BME280;40967;52.070;8.596;2023-04-01T23:24:09;99951.53;;;5.95;100.00
55070;BME280;40967;52.070;8.596;2023-04-01T23:26:25;99956.66;;;5.97;100.00
55070;BME280;40967;52.070;8.596;2023-04-01T23:28:56;99959.03;;;5.93;100.00
55070;BME280;40967;52.070;8.596;2023-04-01T23:31:41;99960.38;;;5.91;100.00
55070;BME280;40967;52.070;8.596;2023-04-01T23:36:41;99974.81;;;5.85;100.00
55070;BME280;40967;52.070;8.596;2023-04-01T23:41:53;99988.44;;;5.78;100.00
55070;BME280;40967;52.070;8.596;2023-04-01T23:44:20;99989.75;;;5.75;100.00
55070;BME280;40967;52.070;8.596;2023-04-01T23:46:47;99989.13;;;5.68;100.00
55070;BME280;40967;52.070;8.596;2023-04-01T23:49:21;100003.41;;;5.69;100.00
55070;BME280;40967;52.070;8.596;2023-04-01T23:51:53;100004.69;;;5.66;100.00
55070;BME280;40967;52.070;8.596;2023-04-01T23:54:29;100006.34;;;5.67;100.00
55070;BME280;40967;52.070;8.596;2023-04-01T23:56:56;100009.78;;;5.63;100.00
55070;BME280;40967;52.070;8.596;2023-04-01T23:59:34;100020.53;;;5.63;100.00
